sensor_id;sensor_type;location;lat;lon;timestamp;pressure;altitude;pressure_sealevel;temperature;humidity
59789;BME280;47353;51.614;5.530;2023-09-30T00:00:14;102377.41;;;11.15;100.00
59789;BME280;47353;51.614;5.530;2023-09-30T00:02:40;102389.06;;;11.17;100.00
59789;BME280;47353;51.614;5.530;2023-09-30T00:05:06;102397.13;;;11.18;100.00
59789;BME280;47353;51.614;5.530;2023-09-30T00:07:33;102395.66;;;11.27;100.00
59789;BME280;47353;51.614;5.530;2023-09-30T00:09:59;102395.34;;;11.24;100.00
59789;BME280;47353;51.614;5.530;2023-09-30T00:12:25;102385.44;;;11.28;100.00
59789;BME280;47353;51.614;5.530;2023-09-30T00:14:50;102392.66;;;11.29;100.00
59789;BME280;47353;51.614;5.530;2023-09-30T00:17:15;102398.69;;;11.26;100.00
59789;BME280;47353;51.614;5.530;2023-09-30T00:19:41;102404.72;;;11.23;100.00
59789;BME280;47353;51.614;5.530;2023-09-30T00:22:06;102405.19;;;11.31;100.00
59789;BME280;47353;51.614;5.530;2023-09-30T00:24:32;102398.44;;;11.27;100.00
59789;BME280;47353;51.614;5.530;2023-09-30T00:26:59;102400.84;;;11.35;100.00
59789;BME280;47353;51.614;5.530;2023-09-30T00:29:24;102405.91;;;11.38;100.00
59789;BME280;47353;51.614;5.530;2023-09-30T00:31:51;102405.06;;;11.38;100.00
59789;BME280;47353;51.614;5.530;2023-09-30T00:34:17;102405.41;;;11.41;100.00
59789;BME280;47353;51.614;5.530;2023-09-30T00:36:42;102408.56;;;11.33;100.00
59789;BME280;47353;51.614;5.530;2023-09-30T00:49:14;102428.94;;;11.39;100.00
59789;BME280;47353;51.614;5.530;2023-09-30T00:51:40;102424.84;;;11.30;100.00
59789;BME280;47353;51.614;5.530;2023-09-30T00:54:06;102417.84;;;11.39;100.00
59789;BME280;47353;51.614;5.530;2023-09-30T00:56:32;102408.94;;;11.25;100.00
59789;BME280;47353;51.614;5.530;2023-09-30T00:58:59;102406.91;;;11.21;100.00
59789;BME280;47353;51.614;5.530;2023-09-30T01:01:25;102406.91;;;11.21;100.00
59789;BME280;47353;51.614;5.530;2023-09-30T01:03:51;102406.41;;;11.24;100.00
59789;BME280;47353;51.614;5.530;2023-09-30T01:06:16;102411.00;;;11.18;100.00
59789;BME280;47353;51.614;5.530;2023-09-30T01:08:42;102415.09;;;11.16;100.00
59789;BME280;47353;51.614;5.530;2023-09-30T01:11:08;102421.25;;;11.18;100.00
59789;BME280;47353;51.614;5.530;2023-09-30T01:13:36;102425.81;;;11.12;100.00
59789;BME280;47353;51.614;5.530;2023-09-30T01:16:05;102423.41;;;11.04;100.00
59789;BME280;47353;51.614;5.530;2023-09-30T01:18:32;102429.44;;;11.01;100.00
59789;BME280;47353;51.614;5.530;2023-09-30T01:21:01;102426.66;;;11.01;100.00
59789;BME280;47353;51.614;5.530;2023-09-30T01:23:32;102425.59;;;11.02;100.00
59789;BME280;47353;51.614;5.530;2023-09-30T01:25:57;102453.41;;;10.96;100.00
59789;BME280;47353;51.614;5.530;2023-09-30T01:28:24;102460.78;;;10.90;100.00
59789;BME280;47353;51.614;5.530;2023-09-30T01:30:49;102454.25;;;10.85;100.00
59789;BME280;47353;51.614;5.530;2023-09-30T01:33:16;102462.19;;;10.81;100.00
59789;BME280;47353;51.614;5.530;2023-09-30T01:42:25;102447.75;;;10.79;100.00
59789;BME280;47353;51.614;5.530;2023-09-30T01:44:51;102448.72;;;10.73;100.00
59789;BME280;47353;51.614;5.530;2023-09-30T01:50:39;102445.69;;;10.86;100.00
59789;BME280;47353;51.614;5.530;2023-09-30T01:53:05;102429.56;;;10.83;100.00
59789;BME280;47353;51.614;5.530;2023-09-30T01:55:34;102429.81;;;10.82;100.00
59789;BME280;47353;51.614;5.530;2023-09-30T01:58:00;102432.19;;;10.78;100.00
59789;BME280;47353;51.614;5.530;2023-09-30T02:00:25;102427.03;;;10.82;100.00
59789;BME280;47353;51.614;5.530;2023-09-30T02:13:44;102430.75;;;10.76;100.00
59789;BME280;47353;51.614;5.530;2023-09-30T02:19:31;102443.91;;;10.92;100.00
59789;BME280;47353;51.614;5.530;2023-09-30T02:21:59;102452.59;;;11.07;100.00
59789;BME280;47353;51.614;5.530;2023-09-30T02:24:25;102448.22;;;11.11;100.00
59789;BME280;47353;51.614;5.530;2023-09-30T02:26:50;102446.31;;;11.11;100.00
59789;BME280;47353;51.614;5.530;2023-09-30T02:29:16;102455.13;;;11.08;100.00
59789;BME280;47353;51.614;5.530;2023-09-30T02:31:41;102451.59;;;11.01;100.00
59789;BME280;47353;51.614;5.530;2023-09-30T02:34:06;102447.63;;;10.97;100.00
59789;BME280;47353;51.614;5.530;2023-09-30T02:36:33;102432.59;;;10.93;100.00
59789;BME280;47353;51.614;5.530;2023-09-30T02:38:58;102436.19;;;10.94;100.00
59789;BME280;47353;51.614;5.530;2023-09-30T02:47:49;102443.41;;;10.72;100.00
59789;BME280;47353;51.614;5.530;2023-09-30T02:50:14;102441.25;;;10.85;100.00
59789;BME280;47353;51.614;5.530;2023-09-30T02:52:40;102432.56;;;10.70;100.00
59789;BME280;47353;51.614;5.530;2023-09-30T02:55:11;102430.88;;;10.69;100.00
59789;BME280;47353;51.614;5.530;2023-09-30T02:57:37;102426.81;;;10.72;100.00
59789;BME280;47353;51.614;5.530;2023-09-30T03:00:04;102432.56;;;10.59;100.00
59789;BME280;47353;51.614;5.530;2023-09-30T03:02:39;102420.63;;;10.58;100.00
59789;BME280;47353;51.614;5.530;2023-09-30T03:05:05;102409.19;;;10.55;100.00
59789;BME280;47353;51.614;5.530;2023-09-30T03:07:30;102427.25;;;10.57;100.00
59789;BME280;47353;51.614;5.530;2023-09-30T03:09:58;102430.16;;;10.62;100.00
59789;BME280;47353;51.614;5.530;2023-09-30T03:12:25;102439.91;;;10.65;100.00
59789;BME280;47353;51.614;5.530;2023-09-30T03:14:51;102440.00;;;10.58;100.00
59789;BME280;47353;51.614;5.530;2023-09-30T03:17:16;102441.22;;;10.62;100.00
59789;BME280;47353;51.614;5.530;2023-09-30T03:19:42;102436.16;;;10.59;100.00
59789;BME280;47353;51.614;5.530;2023-09-30T03:22:09;102435.31;;;10.59;100.00
59789;BME280;47353;51.614;5.530;2023-09-30T03:24:37;102436.75;;;10.61;100.00
59789;BME280;47353;51.614;5.530;2023-09-30T03:27:03;102428.81;;;10.65;100.00
59789;BME280;47353;51.614;5.530;2023-09-30T03:29:29;102423.56;;;10.75;100.00
59789;BME280;47353;51.614;5.530;2023-09-30T03:31:54;102412.81;;;11.01;100.00
59789;BME280;47353;51.614;5.530;2023-09-30T03:34:19;102412.09;;;10.94;100.00
59789;BME280;47353;51.614;5.530;2023-09-30T03:36:45;102418.00;;;10.98;100.00
59789;BME280;47353;51.614;5.530;2023-09-30T03:39:10;102423.91;;;10.90;100.00
59789;BME280;47353;51.614;5.530;2023-09-30T03:41:40;102419.47;;;10.89;100.00
59789;BME280;47353;51.614;5.530;2023-09-30T03:44:05;102406.91;;;10.86;100.00
59789;BME280;47353;51.614;5.530;2023-09-30T03:46:31;102415.72;;;10.83;100.00
59789;BME280;47353;51.614;5.530;2023-09-30T03:48:56;102428.47;;;10.84;100.00
59789;BME280;47353;51.614;5.530;2023-09-30T03:51:22;102424.03;;;10.83;100.00
59789;BME280;47353;51.614;5.530;2023-09-30T03:53:50;102429.56;;;10.83;100.00
59789;BME280;47353;51.614;5.530;2023-09-30T03:56:16;102424.13;;;10.77;100.00
59789;BME280;47353;51.614;5.530;2023-09-30T03:58:43;102418.34;;;10.78;100.00
59789;BME280;47353;51.614;5.530;2023-09-30T04:01:10;102423.88;;;10.78;100.00
59789;BME280;47353;51.614;5.530;2023-09-30T04:03:37;102418.00;;;10.86;100.00
59789;BME280;47353;51.614;5.530;2023-09-30T04:06:04;102418.84;;;10.98;100.00
59789;BME280;47353;51.614;5.530;2023-09-30T04:08:30;102422.09;;;10.84;100.00
59789;BME280;47353;51.614;5.530;2023-09-30T04:10:59;102423.88;;;10.78;100.00
59789;BME280;47353;51.614;5.530;2023-09-30T04:13:24;102425.59;;;10.79;100.00
59789;BME280;47353;51.614;5.530;2023-09-30T04:15:50;102429.91;;;10.75;100.00
59789;BME280;47353;51.614;5.530;2023-09-30T04:18:16;102422.69;;;10.74;100.00
59789;BME280;47353;51.614;5.530;2023-09-30T04:20:41;102424.13;;;10.77;100.00
59789;BME280;47353;51.614;5.530;2023-09-30T04:23:07;102424.50;;;10.80;100.00
59789;BME280;47353;51.614;5.530;2023-09-30T04:25:35;102417.53;;;10.78;100.00
59789;BME280;47353;51.614;5.530;2023-09-30T04:28:00;102424.38;;;10.75;100.00
59789;BME280;47353;51.614;5.530;2023-09-30T04:30:27;102431.50;;;10.71;100.00
59789;BME280;47353;51.614;5.530;2023-09-30T04:32:53;102432.09;;;10.73;100.00
59789;BME280;47353;51.614;5.530;2023-09-30T04:35:19;102439.66;;;10.66;100.00
59789;BME280;47353;51.614;5.530;2023-09-30T04:37:44;102425.56;;;10.56;100.00
59789;BME280;47353;51.614;5.530;2023-09-30T04:40:10;102427.97;;;10.53;100.00
59789;BME280;47353;51.614;5.530;2023-09-30T04:42:45;102430.16;;;10.62;100.00
59789;BME280;47353;51.614;5.530;2023-09-30T04:45:12;102433.88;;;10.68;100.00
59789;BME280;47353;51.614;5.530;2023-09-30T04:47:38;102439.41;;;10.56;100.00
59789;BME280;47353;51.614;5.530;2023-09-30T04:50:07;102450.72;;;10.55;100.00
59789;BME280;47353;51.614;5.530;2023-09-30T04:52:34;102457.56;;;10.52;100.00
59789;BME280;47353;51.614;5.530;2023-09-30T04:55:00;102445.91;;;10.50;100.00
59789;BME280;47353;51.614;5.530;2023-09-30T04:57:26;102443.59;;;10.47;100.00
59789;BME280;47353;51.614;5.530;2023-09-30T04:59:52;102442.16;;;10.45;100.00
59789;BME280;47353;51.614;5.530;2023-09-30T05:02:17;102445.31;;;10.60;100.00
59789;BME280;47353;51.614;5.530;2023-09-30T05:04:42;102453.34;;;10.50;100.00
59789;BME280;47353;51.614;5.530;2023-09-30T05:07:08;102439.75;;;10.48;100.00
59789;BME280;47353;51.614;5.530;2023-09-30T05:09:34;102452.28;;;10.51;100.00
59789;BME280;47353;51.614;5.530;2023-09-30T05:11:59;102456.97;;;10.50;100.00
59789;BME280;47353;51.614;5.530;2023-09-30T05:14:25;102458.13;;;10.43;100.00
59789;BME280;47353;51.614;5.530;2023-09-30T05:16:50;102455.25;;;10.38;100.00
59789;BME280;47353;51.614;5.530;2023-09-30T05:19:15;102464.66;;;10.48;100.00
59789;BME280;47353;51.614;5.530;2023-09-30T05:21:41;102466.22;;;10.44;100.00
59789;BME280;47353;51.614;5.530;2023-09-30T05:24:08;102461.75;;;10.43;100.00
59789;BME280;47353;51.614;5.530;2023-09-30T05:29:55;102470.41;;;10.35;100.00
59789;BME280;47353;51.614;5.530;2023-09-30T05:32:21;102473.94;;;10.42;100.00
59789;BME280;47353;51.614;5.530;2023-09-30T05:34:47;102472.66;;;10.68;100.00
59789;BME280;47353;51.614;5.530;2023-09-30T05:37:13;102471.16;;;10.42;100.00
59789;BME280;47353;51.614;5.530;2023-09-30T05:39:39;102467.31;;;10.43;100.00
59789;BME280;47353;51.614;5.530;2023-09-30T05:42:04;102468.88;;;10.39;100.00
59789;BME280;47353;51.614;5.530;2023-09-30T05:44:31;102476.94;;;10.41;100.00
59789;BME280;47353;51.614;5.530;2023-09-30T05:46:57;102476.31;;;10.39;100.00
59789;BME280;47353;51.614;5.530;2023-09-30T05:49:22;102471.63;;;10.39;100.00
59789;BME280;47353;51.614;5.530;2023-09-30T05:51:48;102470.91;;;10.44;100.00
59789;BME280;47353;51.614;5.530;2023-09-30T05:54:16;102478.03;;;10.51;100.00
59789;BME280;47353;51.614;5.530;2023-09-30T05:56:41;102482.88;;;10.56;100.00
59789;BME280;47353;51.614;5.530;2023-09-30T05:59:08;102482.53;;;10.64;100.00
59789;BME280;47353;51.614;5.530;2023-09-30T06:01:34;102479.91;;;10.69;100.00
59789;BME280;47353;51.614;5.530;2023-09-30T06:04:01;102485.06;;;10.77;100.00
59789;BME280;47353;51.614;5.530;2023-09-30T06:06:27;102485.09;;;10.88;100.00
59789;BME280;47353;51.614;5.530;2023-09-30T06:08:58;102491.13;;;10.97;100.00
59789;BME280;47353;51.614;5.530;2023-09-30T06:11:24;102481.84;;;11.03;100.00
59789;BME280;47353;51.614;5.530;2023-09-30T06:13:53;102479.78;;;11.21;100.00
59789;BME280;47353;51.614;5.530;2023-09-30T06:16:19;102471.38;;;11.16;100.00
59789;BME280;47353;51.614;5.530;2023-09-30T06:18:45;102474.88;;;11.35;100.00
59789;BME280;47353;51.614;5.530;2023-09-30T06:21:11;102480.66;;;11.22;100.00
59789;BME280;47353;51.614;5.530;2023-09-30T06:23:37;102483.06;;;11.18;100.00
59789;BME280;47353;51.614;5.530;2023-09-30T06:26:03;102483.66;;;11.20;100.00
59789;BME280;47353;51.614;5.530;2023-09-30T06:28:28;102476.06;;;11.27;100.00
59789;BME280;47353;51.614;5.530;2023-09-30T06:30:56;102474.59;;;11.48;100.00
59789;BME280;47353;51.614;5.530;2023-09-30T06:33:22;102466.41;;;11.41;100.00
59789;BME280;47353;51.614;5.530;2023-09-30T06:35:47;102475.69;;;11.47;100.00
59789;BME280;47353;51.614;5.530;2023-09-30T06:38:17;102475.94;;;11.45;100.00
59789;BME280;47353;51.614;5.530;2023-09-30T06:40:43;102484.97;;;11.64;100.00
59789;BME280;47353;51.614;5.530;2023-09-30T06:43:10;102487.72;;;11.52;100.00
59789;BME280;47353;51.614;5.530;2023-09-30T06:45:36;102483.47;;;11.85;100.00
59789;BME280;47353;51.614;5.530;2023-09-30T06:48:06;102483.47;;;11.85;100.00
59789;BME280;47353;51.614;5.530;2023-09-30T06:50:32;102489.63;;;11.87;100.00
59789;BME280;47353;51.614;5.530;2023-09-30T06:52:57;102493.56;;;11.91;100.00
59789;BME280;47353;51.614;5.530;2023-09-30T06:55:22;102496.59;;;11.89;100.00
59789;BME280;47353;51.614;5.530;2023-09-30T06:57:50;102508.94;;;12.21;100.00
59789;BME280;47353;51.614;5.530;2023-09-30T07:00:16;102520.31;;;12.20;100.00
59789;BME280;47353;51.614;5.530;2023-09-30T07:02:41;102532.94;;;12.27;100.00
59789;BME280;47353;51.614;5.530;2023-09-30T07:05:08;102541.13;;;12.34;100.00
59789;BME280;47353;51.614;5.530;2023-09-30T07:07:33;102543.16;;;12.38;100.00
59789;BME280;47353;51.614;5.530;2023-09-30T07:09:59;102534.22;;;12.64;100.00
59789;BME280;47353;51.614;5.530;2023-09-30T07:12:24;102535.41;;;12.85;100.00
59789;BME280;47353;51.614;5.530;2023-09-30T07:14:50;102539.25;;;12.95;100.00
59789;BME280;47353;51.614;5.530;2023-09-30T07:17:15;102525.13;;;13.13;100.00
59789;BME280;47353;51.614;5.530;2023-09-30T07:19:41;102525.94;;;13.30;100.00
59789;BME280;47353;51.614;5.530;2023-09-30T07:22:06;102531.13;;;13.60;100.00
59789;BME280;47353;51.614;5.530;2023-09-30T07:24:32;102519.50;;;13.63;100.00
59789;BME280;47353;51.614;5.530;2023-09-30T07:26:58;102540.59;;;13.81;100.00
59789;BME280;47353;51.614;5.530;2023-09-30T07:29:24;102554.50;;;13.81;100.00
59789;BME280;47353;51.614;5.530;2023-09-30T07:31:49;102569.34;;;14.24;100.00
59789;BME280;47353;51.614;5.530;2023-09-30T07:34:16;102571.91;;;14.52;100.00
59789;BME280;47353;51.614;5.530;2023-09-30T07:36:41;102584.13;;;14.73;100.00
59789;BME280;47353;51.614;5.530;2023-09-30T07:39:07;102585.66;;;14.59;100.00
59789;BME280;47353;51.614;5.530;2023-09-30T07:41:36;102589.41;;;14.69;100.00
59789;BME280;47353;51.614;5.530;2023-09-30T07:47:25;102591.81;;;15.46;100.00
59789;BME280;47353;51.614;5.530;2023-09-30T07:49:50;102591.59;;;15.94;100.00
59789;BME280;47353;51.614;5.530;2023-09-30T07:52:16;102591.56;;;16.40;100.00
59789;BME280;47353;51.614;5.530;2023-09-30T07:54:41;102591.16;;;16.84;100.00
59789;BME280;47353;51.614;5.530;2023-09-30T07:57:07;102585.34;;;17.20;100.00
59789;BME280;47353;51.614;5.530;2023-09-30T07:59:32;102583.66;;;17.14;100.00
59789;BME280;47353;51.614;5.530;2023-09-30T08:01:59;102586.13;;;16.76;100.00
59789;BME280;47353;51.614;5.530;2023-09-30T08:04:24;102582.03;;;16.36;100.00
59789;BME280;47353;51.614;5.530;2023-09-30T08:06:50;102587.56;;;16.21;100.00
59789;BME280;47353;51.614;5.530;2023-09-30T08:09:16;102586.47;;;17.19;100.00
59789;BME280;47353;51.614;5.530;2023-09-30T08:11:43;102590.88;;;18.05;100.00
59789;BME280;47353;51.614;5.530;2023-09-30T08:14:09;102591.34;;;18.91;97.17
59789;BME280;47353;51.614;5.530;2023-09-30T08:16:37;102578.66;;;19.42;90.46
59789;BME280;47353;51.614;5.530;2023-09-30T08:19:03;102572.66;;;19.15;90.14
59789;BME280;47353;51.614;5.530;2023-09-30T08:21:29;102580.81;;;19.50;91.44
59789;BME280;47353;51.614;5.530;2023-09-30T08:23:56;102583.34;;;20.51;83.54
59789;BME280;47353;51.614;5.530;2023-09-30T08:26:22;102579.44;;;20.71;78.72
59789;BME280;47353;51.614;5.530;2023-09-30T08:28:47;102584.41;;;20.79;82.30
59789;BME280;47353;51.614;5.530;2023-09-30T08:31:12;102576.44;;;21.23;79.06
59789;BME280;47353;51.614;5.530;2023-09-30T08:33:38;102571.53;;;21.79;76.46
59789;BME280;47353;51.614;5.530;2023-09-30T08:36:06;102569.63;;;21.56;76.01
59789;BME280;47353;51.614;5.530;2023-09-30T08:38:39;102565.59;;;22.35;69.78
59789;BME280;47353;51.614;5.530;2023-09-30T08:44:29;102572.22;;;22.93;68.39
59789;BME280;47353;51.614;5.530;2023-09-30T08:46:56;102568.38;;;23.47;62.60
59789;BME280;47353;51.614;5.530;2023-09-30T08:49:22;102573.03;;;23.73;63.96
59789;BME280;47353;51.614;5.530;2023-09-30T08:51:48;102566.78;;;24.15;62.29
59789;BME280;47353;51.614;5.530;2023-09-30T08:57:42;102557.88;;;24.00;60.88
59789;BME280;47353;51.614;5.530;2023-09-30T09:00:12;102567.91;;;24.53;59.11
59789;BME280;47353;51.614;5.530;2023-09-30T09:02:39;102574.50;;;25.05;59.19
59789;BME280;47353;51.614;5.530;2023-09-30T09:05:05;102575.34;;;25.14;55.43
59789;BME280;47353;51.614;5.530;2023-09-30T09:07:31;102576.50;;;25.05;55.23
59789;BME280;47353;51.614;5.530;2023-09-30T09:10:07;102578.84;;;25.11;55.34
59789;BME280;47353;51.614;5.530;2023-09-30T09:12:36;102578.59;;;25.93;51.94
59789;BME280;47353;51.614;5.530;2023-09-30T09:15:05;102588.22;;;25.46;53.41
59789;BME280;47353;51.614;5.530;2023-09-30T09:17:42;102594.19;;;25.61;54.25
59789;BME280;47353;51.614;5.530;2023-09-30T09:20:09;102606.91;;;25.38;53.99
59789;BME280;47353;51.614;5.530;2023-09-30T09:22:43;102603.31;;;25.92;51.40
59789;BME280;47353;51.614;5.530;2023-09-30T09:25:09;102599.50;;;25.71;50.03
59789;BME280;47353;51.614;5.530;2023-09-30T09:27:35;102606.72;;;25.43;50.87
59789;BME280;47353;51.614;5.530;2023-09-30T09:30:27;102614.38;;;24.52;52.15
59789;BME280;47353;51.614;5.530;2023-09-30T09:33:04;102614.38;;;25.09;52.76
59789;BME280;47353;51.614;5.530;2023-09-30T09:35:31;102622.88;;;25.26;51.19
59789;BME280;47353;51.614;5.530;2023-09-30T09:38:06;102632.00;;;24.49;50.60
59789;BME280;47353;51.614;5.530;2023-09-30T09:40:34;102630.72;;;24.16;52.59
59789;BME280;47353;51.614;5.530;2023-09-30T09:43:00;102625.78;;;24.70;52.71
59789;BME280;47353;51.614;5.530;2023-09-30T09:45:29;102630.84;;;25.83;50.24
59789;BME280;47353;51.614;5.530;2023-09-30T09:47:57;102629.25;;;25.40;47.20
59789;BME280;47353;51.614;5.530;2023-09-30T09:50:23;102633.19;;;25.13;49.13
59789;BME280;47353;51.614;5.530;2023-09-30T09:52:50;102629.75;;;25.50;50.63
59789;BME280;47353;51.614;5.530;2023-09-30T09:55:23;102626.81;;;25.93;47.95
59789;BME280;47353;51.614;5.530;2023-09-30T09:57:49;102628.16;;;26.13;48.36
59789;BME280;47353;51.614;5.530;2023-09-30T10:00:18;102632.84;;;27.33;45.03
59789;BME280;47353;51.614;5.530;2023-09-30T10:02:45;102632.81;;;27.75;42.89
59789;BME280;47353;51.614;5.530;2023-09-30T10:05:12;102622.56;;;27.41;44.12
59789;BME280;47353;51.614;5.530;2023-09-30T10:07:40;102622.53;;;28.15;43.25
59789;BME280;47353;51.614;5.530;2023-09-30T10:10:13;102633.63;;;28.64;42.39
59789;BME280;47353;51.614;5.530;2023-09-30T10:12:40;102635.75;;;28.91;40.81
59789;BME280;47353;51.614;5.530;2023-09-30T10:18:04;102651.25;;;27.36;43.08
59789;BME280;47353;51.614;5.530;2023-09-30T10:20:32;102647.97;;;26.30;45.16
59789;BME280;47353;51.614;5.530;2023-09-30T10:25:42;102634.47;;;26.64;43.87
59789;BME280;47353;51.614;5.530;2023-09-30T10:28:32;102628.34;;;26.07;44.32
59789;BME280;47353;51.614;5.530;2023-09-30T10:36:39;102600.03;;;28.70;38.88
59789;BME280;47353;51.614;5.530;2023-09-30T10:39:11;102593.00;;;28.43;40.12
59789;BME280;47353;51.614;5.530;2023-09-30T10:44:36;102598.91;;;29.78;37.27
59789;BME280;47353;51.614;5.530;2023-09-30T10:49:46;102597.34;;;29.80;37.16
59789;BME280;47353;51.614;5.530;2023-09-30T10:52:21;102592.59;;;30.15;37.76
59789;BME280;47353;51.614;5.530;2023-09-30T10:54:49;102597.09;;;29.85;35.35
59789;BME280;47353;51.614;5.530;2023-09-30T10:57:26;102585.75;;;29.34;37.18
59789;BME280;47353;51.614;5.530;2023-09-30T11:00:13;102581.84;;;29.66;37.77
59789;BME280;47353;51.614;5.530;2023-09-30T11:02:51;102589.94;;;30.07;35.17
59789;BME280;47353;51.614;5.530;2023-09-30T11:05:18;102581.13;;;30.27;36.12
59789;BME280;47353;51.614;5.530;2023-09-30T11:07:48;102583.94;;;30.58;35.37
59789;BME280;47353;51.614;5.530;2023-09-30T11:10:18;102584.56;;;31.18;33.75
59789;BME280;47353;51.614;5.530;2023-09-30T11:12:56;102571.19;;;31.41;34.01
59789;BME280;47353;51.614;5.530;2023-09-30T11:15:23;102582.25;;;29.80;36.07
59789;BME280;47353;51.614;5.530;2023-09-30T11:17:49;102586.00;;;30.42;35.18
59789;BME280;47353;51.614;5.530;2023-09-30T11:20:16;102588.47;;;30.59;35.49
59789;BME280;47353;51.614;5.530;2023-09-30T11:22:43;102574.88;;;31.41;33.87
59789;BME280;47353;51.614;5.530;2023-09-30T11:25:16;102582.00;;;32.11;33.05
59789;BME280;47353;51.614;5.530;2023-09-30T11:27:42;102581.81;;;32.01;31.50
59789;BME280;47353;51.614;5.530;2023-09-30T11:30:08;102576.78;;;31.94;30.59
59789;BME280;47353;51.614;5.530;2023-09-30T11:32:34;102576.66;;;31.68;32.25
59789;BME280;47353;51.614;5.530;2023-09-30T11:34:59;102580.41;;;32.59;29.86
59789;BME280;47353;51.614;5.530;2023-09-30T11:37:31;102564.41;;;31.49;31.89
59789;BME280;47353;51.614;5.530;2023-09-30T11:40:11;102557.66;;;30.06;33.96
59789;BME280;47353;51.614;5.530;2023-09-30T11:42:38;102559.03;;;28.86;35.55
59789;BME280;47353;51.614;5.530;2023-09-30T11:45:18;102557.41;;;27.81;37.37
59789;BME280;47353;51.614;5.530;2023-09-30T11:47:44;102549.50;;;27.98;37.21
59789;BME280;47353;51.614;5.530;2023-09-30T11:50:10;102537.91;;;27.58;37.65
59789;BME280;47353;51.614;5.530;2023-09-30T11:52:36;102531.28;;;27.66;37.75
59789;BME280;47353;51.614;5.530;2023-09-30T11:55:05;102535.53;;;28.17;37.42
59789;BME280;47353;51.614;5.530;2023-09-30T11:57:30;102542.13;;;28.93;36.22
59789;BME280;47353;51.614;5.530;2023-09-30T11:59:56;102548.28;;;29.19;35.42
59789;BME280;47353;51.614;5.530;2023-09-30T12:02:21;102560.66;;;29.11;34.84
59789;BME280;47353;51.614;5.530;2023-09-30T12:04:46;102568.75;;;29.37;34.60
59789;BME280;47353;51.614;5.530;2023-09-30T12:07:12;102560.56;;;30.22;33.77
59789;BME280;47353;51.614;5.530;2023-09-30T12:09:38;102550.13;;;30.29;31.69
59789;BME280;47353;51.614;5.530;2023-09-30T12:12:05;102550.44;;;30.74;32.82
59789;BME280;47353;51.614;5.530;2023-09-30T12:14:34;102554.63;;;31.31;32.07
59789;BME280;47353;51.614;5.530;2023-09-30T12:16:59;102558.88;;;32.23;30.06
59789;BME280;47353;51.614;5.530;2023-09-30T12:19:25;102556.53;;;33.04;28.82
59789;BME280;47353;51.614;5.530;2023-09-30T12:21:51;102556.31;;;32.64;28.03
59789;BME280;47353;51.614;5.530;2023-09-30T12:24:17;102550.31;;;33.28;28.18
59789;BME280;47353;51.614;5.530;2023-09-30T12:26:48;102534.25;;;31.55;27.14
59789;BME280;47353;51.614;5.530;2023-09-30T12:29:18;102528.91;;;30.61;30.32
59789;BME280;47353;51.614;5.530;2023-09-30T12:31:44;102519.84;;;30.75;30.08
59789;BME280;47353;51.614;5.530;2023-09-30T12:34:11;102515.59;;;31.23;30.67
59789;BME280;47353;51.614;5.530;2023-09-30T12:36:37;102502.13;;;30.19;30.67
59789;BME280;47353;51.614;5.530;2023-09-30T12:39:03;102500.31;;;30.96;28.65
59789;BME280;47353;51.614;5.530;2023-09-30T12:41:42;102492.44;;;29.77;28.86
59789;BME280;47353;51.614;5.530;2023-09-30T12:44:08;102505.72;;;28.63;31.24
59789;BME280;47353;51.614;5.530;2023-09-30T12:46:34;102505.47;;;29.19;31.11
59789;BME280;47353;51.614;5.530;2023-09-30T12:49:02;102505.72;;;29.85;30.25
59789;BME280;47353;51.614;5.530;2023-09-30T12:51:28;102510.50;;;30.12;29.53
59789;BME280;47353;51.614;5.530;2023-09-30T12:53:53;102514.03;;;29.47;29.17
59789;BME280;47353;51.614;5.530;2023-09-30T12:56:19;102508.63;;;28.90;31.55
59789;BME280;47353;51.614;5.530;2023-09-30T12:58:44;102500.28;;;29.37;30.95
59789;BME280;47353;51.614;5.530;2023-09-30T13:01:09;102494.28;;;29.70;30.56
59789;BME280;47353;51.614;5.530;2023-09-30T13:03:35;102494.81;;;29.75;29.35
59789;BME280;47353;51.614;5.530;2023-09-30T13:06:01;102498.19;;;29.50;30.26
59789;BME280;47353;51.614;5.530;2023-09-30T13:08:26;102495.50;;;28.74;31.46
59789;BME280;47353;51.614;5.530;2023-09-30T13:10:52;102489.50;;;27.91;33.24
59789;BME280;47353;51.614;5.530;2023-09-30T13:13:17;102488.72;;;27.25;33.38
59789;BME280;47353;51.614;5.530;2023-09-30T13:15:43;102493.16;;;26.53;33.85
59789;BME280;47353;51.614;5.530;2023-09-30T13:18:08;102489.84;;;26.22;35.27
59789;BME280;47353;51.614;5.530;2023-09-30T13:20:34;102490.44;;;26.36;37.37
59789;BME280;47353;51.614;5.530;2023-09-30T13:23:00;102488.97;;;26.50;35.78
59789;BME280;47353;51.614;5.530;2023-09-30T13:25:25;102487.66;;;25.35;37.72
59789;BME280;47353;51.614;5.530;2023-09-30T13:27:52;102497.91;;;25.65;37.52
59789;BME280;47353;51.614;5.530;2023-09-30T13:30:17;102496.75;;;25.66;38.42
59789;BME280;47353;51.614;5.530;2023-09-30T13:32:43;102500.28;;;25.54;37.80
59789;BME280;47353;51.614;5.530;2023-09-30T13:35:09;102500.59;;;25.61;37.80
59789;BME280;47353;51.614;5.530;2023-09-30T13:37:35;102494.88;;;25.70;37.75
59789;BME280;47353;51.614;5.530;2023-09-30T13:40:03;102487.31;;;25.28;38.54
59789;BME280;47353;51.614;5.530;2023-09-30T13:42:30;102481.84;;;24.97;39.16
59789;BME280;47353;51.614;5.530;2023-09-30T13:44:55;102469.00;;;24.91;39.92
59789;BME280;47353;51.614;5.530;2023-09-30T13:47:26;102461.31;;;25.17;39.91
59789;BME280;47353;51.614;5.530;2023-09-30T13:49:51;102463.22;;;25.68;38.97
59789;BME280;47353;51.614;5.530;2023-09-30T13:52:17;102458.56;;;25.55;38.51